Time;durP1;ratioP1;P1;durP2;ratioP2;P2;SDS_P1;SDS_P2;PMS_P1;PMS_P2;Temp;Humidity;BMP_temperature;BMP_pressure;BME280_temperature;BME280_humidity;BME280_pressure;Samples;Min_cycle;Max_cycle;Signal;HPM_P1;HPM_P2
2023/10/02 00:01:51;;;;;;;6.10;2.67;;;18.50;54.60;;;;;;2593478;52;20950;-69
2023/10/02 00:04:19;;;;;;;6.62;2.80;;;18.50;54.60;;;;;;2370401;53;21372;-69
2023/10/02 00:06:46;;;;;;;7.97;3.55;;;18.50;54.80;;;;;;2622398;52;21410;-67
2023/10/02 00:09:16;;;;;;;7.87;3.47;;;18.50;54.90;;;;;;2371134;53;20954;-66
2023/10/02 00:11:44;;;;;;;7.80;3.00;;;18.40;55.00;;;;;;2370080;53;20930;-67
2023/10/02 00:14:22;;;;;;;6.57;2.78;;;18.40;54.90;;;;;;2623285;52;21729;-66
2023/10/02 00:16:58;;;;;;;6.78;2.72;;;18.40;55.00;;;;;;2622864;52;21805;-66
2023/10/02 00:19:45;;;;;;;5.55;2.37;;;18.40;55.00;;;;;;2623255;52;21392;-67
2023/10/02 00:25:21;;;;;;;6.32;2.45;;;18.40;55.10;;;;;;2614500;52;20913;-67
2023/10/02 00:27:51;;;;;;;7.05;2.45;;;18.40;55.80;;;;;;2370336;54;20894;-68
2023/10/02 00:30:21;;;;;;;8.43;3.30;;;18.40;55.00;;;;;;2370640;53;21025;-68
2023/10/02 00:32:50;;;;;;;7.55;3.05;;;18.40;55.10;;;;;;2616754;52;20951;-66
2023/10/02 00:35:17;;;;;;;6.57;2.45;;;18.30;54.90;;;;;;2622930;52;20923;-68
2023/10/02 00:37:43;;;;;;;5.95;2.58;;;18.30;54.90;;;;;;2369572;53;20938;-71
2023/10/02 00:40:43;;;;;;;7.28;2.72;;;18.30;54.90;;;;;;2623114;52;20910;-69
2023/10/02 00:45:59;;;;;;;5.40;2.50;;;18.30;55.00;;;;;;2369911;53;20925;-67
2023/10/02 00:48:28;;;;;;;5.85;2.65;;;18.20;54.80;;;;;;2605458;52;20895;-68
2023/10/02 00:50:58;;;;;;;6.82;2.65;;;18.20;54.90;;;;;;2359403;53;20951;-67
2023/10/02 00:53:48;;;;;;;6.18;2.60;;;18.20;55.00;;;;;;2623038;52;20939;-69
2023/10/02 00:56:28;;;;;;;6.93;2.75;;;18.20;55.10;;;;;;2370897;53;21940;-68
2023/10/02 00:58:58;;;;;;;8.75;2.53;;;18.10;54.90;;;;;;2622802;52;21077;-67
2023/10/02 01:01:26;;;;;;;8.55;3.05;;;18.10;54.90;;;;;;2370240;53;21427;-67
2023/10/02 01:04:11;;;;;;;6.72;2.90;;;18.10;54.90;;;;;;2621600;52;20942;-67
2023/10/02 01:06:54;;;;;;;7.37;2.78;;;18.10;55.00;;;;;;2369843;53;21025;-66
2023/10/02 01:09:25;;;;;;;7.70;3.00;;;18.10;55.00;;;;;;2370544;53;20978;-67
2023/10/02 01:11:59;;;;;;;6.72;3.17;;;18.00;55.00;;;;;;2370133;53;20914;-67
2023/10/02 01:17:11;;;;;;;5.57;2.60;;;18.00;55.70;;;;;;2608280;52;21411;-68
2023/10/02 01:19:52;;;;;;;10.07;3.15;;;18.00;55.10;;;;;;2615968;52;20998;-67
2023/10/02 01:22:35;;;;;;;5.70;2.40;;;17.90;55.10;;;;;;2603908;52;21832;-66
2023/10/02 01:25:15;;;;;;;8.13;2.72;;;17.90;55.10;;;;;;2370324;53;21058;-67
2023/10/02 01:27:47;;;;;;;6.93;2.65;;;17.90;55.10;;;;;;2369989;53;20958;-66
2023/10/02 01:30:18;;;;;;;6.55;2.90;;;17.90;55.20;;;;;;2621996;52;20991;-67
2023/10/02 01:33:11;;;;;;;6.00;2.43;;;17.90;55.30;;;;;;2607088;52;21590;-66
2023/10/02 01:35:54;;;;;;;5.87;2.20;;;17.90;55.40;;;;;;2595552;52;21010;-66
2023/10/02 01:38:33;;;;;;;6.22;2.40;;;17.80;55.30;;;;;;2362813;53;21100;-66
2023/10/02 01:41:04;;;;;;;6.32;2.85;;;17.80;55.40;;;;;;2597550;52;20957;-68
2023/10/02 01:43:39;;;;;;;7.10;2.78;;;17.80;55.40;;;;;;2622199;52;21053;-67
2023/10/02 01:46:06;;;;;;;7.12;3.37;;;17.80;55.40;;;;;;2370367;53;21026;-70
2023/10/02 01:48:37;;;;;;;6.43;2.65;;;17.80;55.40;;;;;;2369079;53;20945;-66
2023/10/02 01:51:20;;;;;;;6.97;2.90;;;17.70;55.30;;;;;;2370523;53;21701;-67
2023/10/02 01:54:15;;;;;;;6.50;2.75;;;17.70;55.40;;;;;;2600123;52;21539;-67
2023/10/02 01:56:45;;;;;;;6.93;2.97;;;17.70;55.60;;;;;;2369553;53;21010;-66
2023/10/02 01:59:14;;;;;;;8.02;3.42;;;17.70;55.30;;;;;;2622363;52;20935;-68
2023/10/02 02:01:54;;;;;;;5.87;2.30;;;17.70;55.30;;;;;;2622017;52;20911;-66
2023/10/02 02:04:24;;;;;;;7.55;2.85;;;17.70;55.40;;;;;;2370287;53;21248;-66
2023/10/02 02:06:51;;;;;;;6.40;2.85;;;17.70;55.50;;;;;;2370297;53;21025;-65
2023/10/02 02:09:23;;;;;;;6.12;2.40;;;17.60;55.40;;;;;;2622618;52;21316;-68
2023/10/02 02:12:12;;;;;;;6.43;2.57;;;17.60;55.50;;;;;;2369732;53;20986;-67
2023/10/02 02:14:52;;;;;;;5.75;2.53;;;17.60;55.60;;;;;;2369799;53;21271;-67
2023/10/02 02:17:28;;;;;;;6.15;2.12;;;17.60;55.50;;;;;;2622223;52;21014;-66
2023/10/02 02:19:56;;;;;;;7.90;2.80;;;17.60;55.60;;;;;;2621915;52;20943;-66
2023/10/02 02:22:25;;;;;;;7.03;2.53;;;17.50;55.40;;;;;;2370488;53;21015;-70
2023/10/02 02:24:54;;;;;;;5.97;2.28;;;17.50;55.50;;;;;;2620840;52;20903;-69
2023/10/02 02:27:21;;;;;;;8.20;3.10;;;17.50;55.50;;;;;;2347960;53;20973;-67
2023/10/02 02:29:56;;;;;;;6.97;2.72;;;17.50;55.50;;;;;;2370267;53;20950;-66
2023/10/02 02:35:14;;;;;;;8.55;3.17;;;17.40;55.60;;;;;;2621904;52;20919;-67
2023/10/02 02:37:43;;;;;;;7.10;2.87;;;17.40;55.70;;;;;;2369394;53;20922;-67
2023/10/02 02:40:29;;;;;;;8.95;3.70;;;17.40;55.80;;;;;;2623205;52;20986;-67
2023/10/02 02:42:56;;;;;;;6.62;2.80;;;17.40;55.80;;;;;;2622488;52;20988;-67
2023/10/02 02:45:29;;;;;;;7.95;2.97;;;17.40;55.80;;;;;;2369348;53;20930;-71
2023/10/02 02:47:57;;;;;;;6.78;2.95;;;17.40;55.90;;;;;;2621834;52;20953;-67
2023/10/02 02:50:33;;;;;;;6.45;2.55;;;17.40;55.90;;;;;;2622435;52;21085;-67
2023/10/02 02:53:17;;;;;;;7.12;2.53;;;17.30;55.90;;;;;;2369316;53;20989;-68
2023/10/02 02:55:44;;;;;;;7.25;2.75;;;17.40;55.90;;;;;;2622268;52;20981;-66
2023/10/02 02:58:12;;;;;;;5.95;2.60;;;17.30;55.80;;;;;;2370496;53;21390;-69
2023/10/02 03:00:42;;;;;;;6.57;2.58;;;17.30;55.80;;;;;;2622611;52;20954;-66
2023/10/02 03:03:32;;;;;;;6.65;2.53;;;17.30;55.80;;;;;;2370143;53;20950;-67
2023/10/02 03:05:58;;;;;;;6.87;2.70;;;17.30;55.90;;;;;;2622570;52;20974;-66
2023/10/02 03:08:37;;;;;;;6.22;2.42;;;17.30;55.90;;;;;;2623181;52;20918;-67
2023/10/02 03:11:08;;;;;;;6.05;2.60;;;17.20;55.80;;;;;;2370441;53;21027;-67
2023/10/02 03:13:35;;;;;;;8.80;3.30;;;17.20;55.80;;;;;;2369643;53;20966;-67
2023/10/02 03:16:12;;;;;;;6.55;2.70;;;17.20;56.50;;;;;;2622453;52;21006;-69
2023/10/02 03:18:43;;;;;;;7.30;2.80;;;17.20;56.10;;;;;;2369149;53;20923;-67
2023/10/02 03:21:24;;;;;;;7.03;3.00;;;17.20;55.90;;;;;;2370424;53;21021;-67
2023/10/02 03:23:53;;;;;;;6.15;2.62;;;17.20;56.20;;;;;;2621605;52;21058;-68
2023/10/02 03:26:37;;;;;;;7.78;2.87;;;17.10;55.90;;;;;;2370181;53;20998;-66
2023/10/02 03:29:21;;;;;;;7.37;2.90;;;17.10;56.00;;;;;;2369896;53;20977;-66
2023/10/02 03:31:51;;;;;;;6.60;3.00;;;17.10;56.00;;;;;;2369617;53;21399;-68
2023/10/02 03:34:30;;;;;;;7.45;2.80;;;17.00;55.90;;;;;;2588713;52;21103;-68
2023/10/02 03:40:14;;;;;;;5.95;2.45;;;17.10;56.00;;;;;;2342383;53;21560;-69
2023/10/02 03:42:40;;;;;;;6.90;2.50;;;17.00;55.90;;;;;;2342140;53;20928;-67
2023/10/02 03:45:08;;;;;;;7.45;3.25;;;17.00;55.80;;;;;;2342005;53;21148;-67
2023/10/02 03:47:34;;;;;;;7.80;2.60;;;17.00;55.90;;;;;;2588351;52;20925;-66
2023/10/02 03:50:01;;;;;;;6.47;2.55;;;17.00;56.00;;;;;;2588413;52;21713;-68
2023/10/02 03:52:30;;;;;;;7.87;2.95;;;17.00;56.00;;;;;;2589013;52;20955;-69
2023/10/02 03:54:57;;;;;;;7.07;3.10;;;16.90;56.00;;;;;;2342054;54;20985;-69
2023/10/02 04:00:19;;;;;;;6.55;2.55;;;16.90;56.10;;;;;;2342393;54;21011;-70
2023/10/02 04:02:52;;;;;;;8.25;2.80;;;16.90;56.10;;;;;;2607912;52;20997;-67
2023/10/02 04:05:32;;;;;;;7.90;2.40;;;16.90;56.20;;;;;;2594646;52;20934;-67
2023/10/02 04:08:12;;;;;;;6.03;2.60;;;16.90;56.10;;;;;;2621770;52;20910;-67
2023/10/02 04:10:56;;;;;;;6.57;2.70;;;16.80;56.00;;;;;;2370363;53;20999;-67
2023/10/02 04:13:25;;;;;;;8.15;3.30;;;16.80;56.20;;;;;;2367607;53;21833;-67
2023/10/02 04:16:28;;;;;;;9.90;3.05;;;16.80;56.10;;;;;;2601621;52;20938;-68
2023/10/02 04:19:01;;;;;;;10.93;3.05;;;16.80;56.20;;;;;;2622700;52;20990;-67
2023/10/02 04:21:33;;;;;;;7.43;2.67;;;16.80;56.00;;;;;;2622832;52;20978;-67
2023/10/02 04:23:59;;;;;;;7.32;2.90;;;16.80;56.10;;;;;;2369683;53;20943;-67
2023/10/02 04:26:28;;;;;;;8.88;3.22;;;16.70;56.00;;;;;;2622378;52;21838;-67
2023/10/02 04:28:58;;;;;;;5.68;2.80;;;16.70;56.00;;;;;;2369444;53;21870;-69
2023/10/02 04:31:30;;;;;;;6.80;3.15;;;16.70;56.10;;;;;;2370345;53;20930;-69
2023/10/02 04:34:23;;;;;;;7.12;3.08;;;16.70;56.10;;;;;;2369179;53;21010;-68
2023/10/02 04:36:51;;;;;;;6.62;2.60;;;16.60;56.10;;;;;;2622242;52;21776;-67
2023/10/02 04:39:52;;;;;;;6.82;3.22;;;16.70;56.10;;;;;;2370104;53;21054;-67
2023/10/02 04:42:25;;;;;;;7.32;3.17;;;16.60;56.10;;;;;;2343052;53;21906;-67
2023/10/02 04:44:56;;;;;;;5.55;2.58;;;16.60;56.10;;;;;;2342142;53;21015;-70
2023/10/02 04:47:26;;;;;;;5.82;2.95;;;16.60;56.10;;;;;;2582208;52;20962;-67
2023/10/02 04:50:34;;;;;;;5.97;2.85;;;16.60;56.10;;;;;;2361034;54;21016;-69
2023/10/02 04:58:58;;;;;;;5.87;2.10;;;16.50;56.00;;;;;;2587815;52;21524;-67
2023/10/02 05:01:46;;;;;;;7.05;2.70;;;16.50;55.80;;;;;;2588580;52;21785;-70
2023/10/02 05:04:18;;;;;;;6.82;2.70;;;16.50;55.90;;;;;;2342037;53;20952;-67
2023/10/02 05:06:52;;;;;;;6.20;3.03;;;16.40;55.90;;;;;;2342753;53;21699;-67
2023/10/02 05:09:26;;;;;;;7.28;3.17;;;16.40;56.00;;;;;;2342662;53;20989;-68
2023/10/02 05:11:55;;;;;;;6.60;2.85;;;16.30;56.00;;;;;;2342387;53;21028;-65
2023/10/02 05:14:26;;;;;;;8.18;3.25;;;16.30;56.10;;;;;;2360197;53;20962;-68
2023/10/02 05:16:53;;;;;;;7.72;3.22;;;16.40;56.20;;;;;;2342663;53;20953;-68
2023/10/02 05:19:50;;;;;;;8.43;3.17;;;16.30;56.10;;;;;;2588420;52;20953;-67
2023/10/02 05:22:16;;;;;;;9.65;3.25;;;16.30;56.10;;;;;;2589181;52;20983;-69
2023/10/02 05:24:42;;;;;;;6.45;2.60;;;16.20;56.00;;;;;;2341485;53;21421;-67
2023/10/02 05:27:27;;;;;;;6.50;2.83;;;16.20;56.10;;;;;;2357616;53;21396;-67
2023/10/02 05:30:18;;;;;;;6.75;2.92;;;16.30;56.20;;;;;;2587779;52;21040;-67
2023/10/02 05:32:44;;;;;;;6.35;2.78;;;16.20;56.10;;;;;;2342156;53;21644;-67
2023/10/02 05:37:50;;;;;;;8.60;3.30;;;16.10;56.10;;;;;;2621017;52;21230;-68
2023/10/02 05:45:50;;;;;;;8.00;2.80;;;16.00;56.10;;;;;;2621684;52;20990;-67
2023/10/02 05:48:37;;;;;;;8.13;3.28;;;16.10;56.20;;;;;;2622574;52;21651;-67
2023/10/02 05:51:15;;;;;;;6.20;3.05;;;16.00;56.30;;;;;;2622427;52;20966;-67
2023/10/02 05:53:53;;;;;;;8.60;3.50;;;16.00;56.20;;;;;;2622692;52;20965;-67
2023/10/02 05:56:19;;;;;;;7.03;2.97;;;16.00;56.30;;;;;;2368760;53;21022;-67
2023/10/02 05:58:49;;;;;;;7.30;3.03;;;16.00;56.30;;;;;;2599639;52;21077;-66
2023/10/02 06:01:18;;;;;;;7.97;3.10;;;16.00;56.40;;;;;;2369861;53;20973;-67
2023/10/02 06:03:56;;;;;;;9.20;3.20;;;15.90;56.30;;;;;;2623109;52;20927;-66
2023/10/02 06:06:23;;;;;;;6.22;3.00;;;16.00;56.50;;;;;;2353208;53;21064;-66
2023/10/02 06:09:00;;;;;;;7.47;2.80;;;15.90;56.40;;;;;;2369758;53;20954;-66
2023/10/02 06:11:33;;;;;;;5.37;2.50;;;16.00;56.50;;;;;;2622469;52;21030;-66
2023/10/02 06:14:09;;;;;;;;;;;15.90;56.50;;;;;;2626459;52;20923;-66
2023/10/02 06:16:43;;;;;;;6.35;2.20;;;16.00;56.70;;;;;;2369539;53;20065;-68
2023/10/02 06:19:15;;;;;;;5.22;2.40;;;16.00;56.40;;;;;;2369770;53;20954;-69
2023/10/02 06:27:41;;;;;;;5.25;2.33;;;16.00;56.70;;;;;;2622136;52;20064;-69
2023/10/02 06:30:16;;;;;;;6.07;2.58;;;15.90;56.20;;;;;;2622367;52;21403;-67
2023/10/02 06:32:52;;;;;;;7.22;2.65;;;15.90;56.50;;;;;;2621304;52;21001;-71
2023/10/02 06:35:21;;;;;;;7.40;2.78;;;15.90;56.70;;;;;;2622073;52;20986;-66
2023/10/02 06:37:49;;;;;;;7.20;3.12;;;15.90;56.80;;;;;;2621981;52;20990;-67
2023/10/02 06:40:16;;;;;;;6.45;3.00;;;15.90;56.90;;;;;;2370156;53;20930;-67
2023/10/02 06:42:48;;;;;;;6.78;3.00;;;15.90;57.00;;;;;;2368034;53;21358;-66
2023/10/02 06:45:20;;;;;;;8.15;3.67;;;15.90;57.20;;;;;;2618819;52;20939;-67
2023/10/02 06:47:48;;;;;;;9.32;3.35;;;16.00;57.50;;;;;;2370277;53;20969;-67
2023/10/02 06:50:35;;;;;;;7.47;3.22;;;16.00;57.50;;;;;;2621375;52;20966;-66
2023/10/02 06:53:02;;;;;;;8.25;3.50;;;16.00;57.60;;;;;;2373195;53;20942;-68
2023/10/02 06:55:32;;;;;;;10.57;3.83;;;16.10;57.80;;;;;;2370258;53;21009;-68
2023/10/02 06:57:58;;;;;;;7.62;3.50;;;16.10;57.90;;;;;;2369699;53;20919;-67
2023/10/02 07:00:36;;;;;;;6.95;3.20;;;16.10;58.00;;;;;;2622844;52;21486;-67
2023/10/02 07:03:03;;;;;;;7.68;2.90;;;16.20;58.20;;;;;;2622406;52;20942;-66
2023/10/02 07:05:32;;;;;;;9.20;3.78;;;16.30;58.30;;;;;;2623059;52;20938;-67
2023/10/02 07:08:17;;;;;;;7.55;3.40;;;16.30;58.30;;;;;;2370024;53;20906;-67
2023/10/02 07:10:53;;;;;;;7.93;3.30;;;16.40;58.50;;;;;;2367919;53;21814;-67
2023/10/02 07:13:20;;;;;;;8.15;3.10;;;16.40;58.70;;;;;;2618020;52;21116;-67
2023/10/02 07:15:56;;;;;;;8.02;3.70;;;16.50;58.60;;;;;;2622009;52;20959;-68
2023/10/02 07:18:36;;;;;;;8.48;3.15;;;16.60;58.70;;;;;;2621990;52;20942;-67
2023/10/02 07:21:09;;;;;;;7.97;3.00;;;16.60;58.80;;;;;;2621884;52;20982;-67
2023/10/02 07:23:39;;;;;;;8.30;3.72;;;16.70;59.00;;;;;;2622422;52;20989;-67
2023/10/02 07:26:20;;;;;;;7.28;3.47;;;16.90;59.10;;;;;;2370055;53;21269;-68
2023/10/02 07:28:52;;;;;;;10.27;3.80;;;16.90;59.60;;;;;;2620966;52;20969;-67
2023/10/02 07:31:22;;;;;;;10.18;4.30;;;16.90;59.40;;;;;;2621353;52;20974;-70
2023/10/02 07:33:48;;;;;;;10.25;4.07;;;17.00;59.50;;;;;;2368796;53;20994;-68
2023/10/02 07:36:15;;;;;;;8.82;4.05;;;17.10;59.50;;;;;;2366071;53;20986;-71
2023/10/02 07:38:42;;;;;;;8.43;3.70;;;17.20;59.60;;;;;;2368284;53;21051;-66
2023/10/02 07:41:16;;;;;;;8.93;3.97;;;17.20;59.60;;;;;;2368230;53;20993;-68
2023/10/02 07:43:42;;;;;;;11.02;4.10;;;17.30;59.90;;;;;;2620006;52;20938;-67
2023/10/02 07:46:14;;;;;;;7.25;3.22;;;17.40;59.70;;;;;;2611676;52;21002;-69
2023/10/02 07:48:41;;;;;;;;;;;17.50;59.80;;;;;;2624404;52;20954;-67
2023/10/02 07:51:09;;;;;;;8.07;3.53;;;17.60;60.10;;;;;;2369093;53;20112;-68
2023/10/02 07:53:38;;;;;;;9.25;3.95;;;17.70;59.70;;;;;;2369451;53;20974;-67
2023/10/02 07:56:06;;;;;;;9.98;4.07;;;17.80;60.60;;;;;;2371658;53;20993;-68
2023/10/02 07:58:35;;;;;;;8.88;3.97;;;17.90;60.10;;;;;;2360439;54;20930;-67
2023/10/02 08:01:11;;;;;;;8.30;3.80;;;17.90;60.10;;;;;;2368678;53;20942;-68
2023/10/02 08:03:45;;;;;;;9.45;3.80;;;18.00;60.20;;;;;;2621052;52;21009;-68
2023/10/02 08:06:33;;;;;;;7.90;3.85;;;18.10;60.20;;;;;;2621427;52;20906;-66
2023/10/02 08:11:53;;;;;;;8.18;3.30;;;18.30;60.30;;;;;;2621404;52;20925;-68
2023/10/02 08:14:38;;;;;;;9.43;3.65;;;18.50;60.40;;;;;;2368493;53;20966;-67
2023/10/02 08:21:05;;;;;;;7.10;3.45;;;18.60;60.40;;;;;;2619337;52;20930;-68
2023/10/02 08:23:31;;;;;;;7.95;3.42;;;18.80;60.40;;;;;;2611737;52;20986;-68
2023/10/02 08:26:09;;;;;;;11.48;4.57;;;18.90;61.30;;;;;;2370054;53;20922;-68
2023/10/02 08:28:52;;;;;;;8.77;4.00;;;19.00;61.10;;;;;;2621655;52;21810;-67
2023/10/02 08:31:18;;;;;;;8.68;4.07;;;19.10;60.90;;;;;;2620957;52;20993;-68
2023/10/02 08:33:45;;;;;;;11.43;4.82;;;19.20;60.80;;;;;;2620841;52;20973;-69
2023/10/02 08:36:12;;;;;;;11.68;4.85;;;19.30;60.90;;;;;;2620779;52;21727;-68
2023/10/02 08:38:41;;;;;;;9.32;4.45;;;19.40;61.00;;;;;;2369774;53;21002;-69
2023/10/02 08:41:08;;;;;;;9.52;4.28;;;19.60;61.10;;;;;;2614586;52;21029;-68
2023/10/02 08:43:43;;;;;;;10.90;4.82;;;19.60;61.00;;;;;;2621421;52;20949;-68
2023/10/02 08:46:27;;;;;;;9.27;4.65;;;19.80;61.20;;;;;;2369090;53;20915;-68
2023/10/02 08:48:57;;;;;;;9.93;3.78;;;19.90;61.30;;;;;;2620813;52;20971;-68
2023/10/02 08:51:33;;;;;;;10.73;5.32;;;20.00;61.50;;;;;;2368555;53;20930;-65
2023/10/02 08:54:05;;;;;;;10.57;4.40;;;20.10;61.50;;;;;;2371938;53;21550;-69
2023/10/02 08:56:48;;;;;;;10.00;4.75;;;20.30;61.30;;;;;;2372540;53;20934;-69
2023/10/02 08:59:16;;;;;;;8.75;4.20;;;20.40;61.20;;;;;;2620554;52;21412;-67
2023/10/02 09:01:47;;;;;;;9.02;4.22;;;20.50;61.10;;;;;;2620821;52;21001;-67
2023/10/02 09:04:22;;;;;;;10.75;4.85;;;20.60;61.00;;;;;;2368790;53;20919;-68
2023/10/02 09:06:49;;;;;;;9.88;4.37;;;20.70;61.00;;;;;;2621266;52;20974;-67
2023/10/02 09:12:22;;;;;;;9.88;4.28;;;20.90;61.10;;;;;;2368825;53;21369;-67
2023/10/02 09:14:51;;;;;;;10.13;4.87;;;21.10;60.80;;;;;;2368500;53;21959;-68
2023/10/02 09:17:25;;;;;;;9.27;3.78;;;21.20;60.70;;;;;;2368738;53;21004;-67
2023/10/02 09:20:03;;;;;;;11.07;5.28;;;21.30;60.60;;;;;;2369179;53;21002;-67
2023/10/02 09:22:36;;;;;;;9.88;4.70;;;21.40;61.40;;;;;;2611395;52;20927;-67
2023/10/02 09:25:09;;;;;;;10.57;4.75;;;21.40;60.60;;;;;;2369298;53;21029;-69
2023/10/02 09:27:41;;;;;;;13.45;5.50;;;21.60;60.60;;;;;;2368977;53;21700;-68
2023/10/02 09:30:15;;;;;;;11.12;5.18;;;21.60;60.30;;;;;;2368950;53;21018;-69
2023/10/02 09:32:49;;;;;;;9.50;4.65;;;21.70;60.30;;;;;;2620496;52;20902;-67
2023/10/02 09:35:29;;;;;;;10.82;5.18;;;21.80;60.20;;;;;;2368611;53;21531;-67
2023/10/02 09:38:03;;;;;;;11.15;5.32;;;21.90;60.20;;;;;;2621128;52;21376;-69
2023/10/02 09:40:54;;;;;;;10.90;5.40;;;22.00;60.30;;;;;;2346161;53;20952;-68
2023/10/02 09:43:28;;;;;;;11.63;5.40;;;22.20;60.50;;;;;;2586706;52;21288;-68
2023/10/02 09:45:55;;;;;;;11.48;5.22;;;22.20;60.30;;;;;;2341755;53;21437;-69
2023/10/02 09:49:01;;;;;;;11.82;5.25;;;22.30;60.10;;;;;;2586128;52;20965;-70
2023/10/02 09:51:45;;;;;;;10.35;4.40;;;22.50;60.00;;;;;;2589145;52;20978;-68
2023/10/02 09:54:34;;;;;;;8.23;4.12;;;22.50;59.60;;;;;;2556698;53;20980;-68
2023/10/02 09:57:06;;;;;;;10.35;4.60;;;22.60;59.60;;;;;;2346729;53;20937;-68
2023/10/02 09:59:37;;;;;;;8.45;4.45;;;22.70;59.80;;;;;;2340923;54;20949;-67
2023/10/02 10:05:49;;;;;;;11.13;5.53;;;22.90;59.80;;;;;;2370813;53;20934;-67
2023/10/02 10:08:28;;;;;;;11.77;4.85;;;23.00;59.70;;;;;;2617084;52;21074;-67
2023/10/02 10:11:03;;;;;;;9.82;4.30;;;23.10;59.60;;;;;;2622038;52;20910;-67
2023/10/02 10:13:37;;;;;;;9.77;4.90;;;23.20;59.40;;;;;;2369237;53;20918;-67
2023/10/02 10:17:14;;;;;;;10.98;4.62;;;23.30;59.30;;;;;;2369811;53;20946;-70
2023/10/02 10:20:45;;;;;;;10.55;5.05;;;23.40;59.60;;;;;;2621226;52;20958;-67
2023/10/02 10:23:31;;;;;;;8.73;4.15;;;23.50;59.10;;;;;;2366568;53;21055;-66
2023/10/02 10:26:07;;;;;;;11.50;5.18;;;23.60;59.10;;;;;;2356661;53;20894;-67
2023/10/02 10:28:33;;;;;;;12.70;5.32;;;23.60;59.20;;;;;;2351733;53;21009;-71
2023/10/02 10:31:08;;;;;;;11.35;5.45;;;23.70;59.20;;;;;;2340941;53;20933;-68
2023/10/02 10:33:36;;;;;;;12.23;5.70;;;23.80;59.20;;;;;;2587368;52;21068;-68
2023/10/02 10:36:09;;;;;;;10.18;5.12;;;23.90;59.20;;;;;;2369783;53;20966;-68
2023/10/02 10:38:41;;;;;;;13.07;6.12;;;23.90;59.20;;;;;;2599941;52;20922;-67
2023/10/02 10:41:26;;;;;;;9.82;4.95;;;24.10;59.20;;;;;;2586858;52;21295;-67
2023/10/02 10:43:56;;;;;;;8.90;4.70;;;24.10;59.00;;;;;;2602981;52;21496;-68
2023/10/02 10:46:29;;;;;;;8.43;4.65;;;24.20;59.00;;;;;;2342803;53;21036;-68
2023/10/02 10:49:08;;;;;;;11.38;5.32;;;24.30;58.80;;;;;;2346195;53;20972;-67
2023/10/02 10:51:37;;;;;;;9.52;4.62;;;24.40;58.80;;;;;;2599248;52;20997;-67
2023/10/02 10:54:25;;;;;;;9.23;4.72;;;24.50;58.70;;;;;;2586726;52;20976;-68
2023/10/02 11:01:21;;;;;;;9.73;4.50;;;24.70;58.40;;;;;;2340786;53;21040;-68
2023/10/02 11:03:56;;;;;;;12.48;5.50;;;24.90;58.40;;;;;;2587275;52;20917;-69
2023/10/02 11:06:23;;;;;;;9.77;5.05;;;25.00;58.20;;;;;;2341968;53;21008;-68
2023/10/02 11:09:11;;;;;;;12.18;5.45;;;25.10;58.20;;;;;;2341534;53;20944;-68
2023/10/02 11:11:51;;;;;;;13.65;5.90;;;25.20;57.60;;;;;;2340799;54;21453;-67
2023/10/02 11:14:21;;;;;;;15.60;7.10;;;25.20;57.60;;;;;;2338189;53;20902;-68
2023/10/02 11:16:51;;;;;;;13.20;6.80;;;25.30;57.40;;;;;;2621846;52;20910;-68
2023/10/02 11:19:35;;;;;;;14.00;6.90;;;25.40;57.80;;;;;;2369291;53;20998;-68
2023/10/02 11:22:19;;;;;;;12.70;6.28;;;25.60;57.10;;;;;;2621911;52;20929;-68
2023/10/02 11:25:19;;;;;;;12.98;6.40;;;25.60;56.60;;;;;;2621568;52;20964;-69
2023/10/02 11:27:57;;;;;;;11.77;5.97;;;25.70;56.60;;;;;;2360890;53;21054;-67
2023/10/02 11:30:32;;;;;;;11.07;6.37;;;25.80;56.90;;;;;;2360437;53;20977;-68
2023/10/02 11:33:03;;;;;;;11.98;5.87;;;25.90;56.70;;;;;;2369118;53;21020;-67
2023/10/02 11:35:29;;;;;;;12.65;5.82;;;26.00;56.60;;;;;;2619542;52;20942;-68
2023/10/02 11:37:56;;;;;;;12.85;6.53;;;26.10;56.50;;;;;;2369155;53;21052;-69
2023/10/02 11:40:28;;;;;;;12.70;5.43;;;26.20;56.40;;;;;;2347590;53;20930;-68
2023/10/02 11:42:59;;;;;;;;;;;26.30;56.30;;;;;;2372753;53;20973;-69
2023/10/02 11:45:26;;;;;;;11.12;4.90;;;26.40;56.10;;;;;;2621296;52;20381;-68
2023/10/02 11:47:53;;;;;;;13.05;6.43;;;26.50;56.10;;;;;;2369047;53;21013;-71
2023/10/02 11:50:19;;;;;;;12.75;5.80;;;26.50;56.00;;;;;;2368937;53;21006;-70
2023/10/02 11:52:47;;;;;;;11.35;6.22;;;26.60;55.90;;;;;;2369061;53;20982;-69
2023/10/02 11:55:19;;;;;;;12.60;6.18;;;26.70;55.70;;;;;;2369700;53;21526;-68
2023/10/02 11:57:51;;;;;;;14.63;6.87;;;26.80;55.60;;;;;;2349582;53;22029;-67
2023/10/02 12:00:20;;;;;;;11.85;6.22;;;26.80;55.40;;;;;;2622147;52;20938;-70
2023/10/02 12:02:49;;;;;;;13.15;6.65;;;26.90;55.40;;;;;;2369220;53;21200;-70
2023/10/02 12:05:18;;;;;;;13.50;6.75;;;27.00;55.30;;;;;;2369908;53;20930;-72
2023/10/02 12:07:45;;;;;;;15.55;7.28;;;27.10;55.20;;;;;;2369101;53;20978;-70
2023/10/02 12:10:15;;;;;;;21.35;8.00;;;27.20;55.10;;;;;;2369337;53;20942;-69
2023/10/02 12:12:45;;;;;;;17.80;8.50;;;27.20;54.90;;;;;;2350529;53;20930;-69
2023/10/02 12:15:15;;;;;;;14.90;7.87;;;27.30;54.90;;;;;;2370904;53;20962;-69
2023/10/02 12:17:41;;;;;;;15.27;7.72;;;27.30;54.80;;;;;;2621238;52;21017;-69
2023/10/02 12:20:10;;;;;;;13.52;6.50;;;27.40;54.70;;;;;;2370634;53;21010;-71
2023/10/02 12:22:37;;;;;;;13.95;7.12;;;27.40;54.60;;;;;;2367331;53;21013;-69
2023/10/02 12:25:09;;;;;;;15.95;7.43;;;27.50;54.50;;;;;;2619665;52;20951;-70
2023/10/02 12:27:38;;;;;;;14.25;7.10;;;27.50;54.00;;;;;;2358594;53;21029;-72
2023/10/02 12:30:11;;;;;;;14.75;7.68;;;27.60;54.20;;;;;;2361686;53;20926;-71
2023/10/02 12:32:40;;;;;;;13.23;6.75;;;27.70;54.40;;;;;;2367997;53;21057;-68
2023/10/02 12:35:08;;;;;;;13.93;6.82;;;27.80;53.70;;;;;;2621301;52;20986;-73
2023/10/02 12:37:35;;;;;;;15.88;7.82;;;27.80;53.80;;;;;;2350755;53;21523;-69
2023/10/02 12:40:02;;;;;;;16.05;8.02;;;27.90;53.70;;;;;;2617596;52;21009;-69
2023/10/02 12:42:32;;;;;;;18.20;8.52;;;28.00;53.50;;;;;;2368842;53;20930;-69
2023/10/02 12:45:01;;;;;;;18.23;8.77;;;28.10;53.60;;;;;;2368835;53;21666;-71
2023/10/02 12:47:27;;;;;;;19.08;9.32;;;28.10;52.90;;;;;;2620845;52;20978;-70
2023/10/02 12:49:54;;;;;;;19.33;9.52;;;28.20;52.90;;;;;;2369076;53;21437;-71
2023/10/02 12:52:22;;;;;;;18.27;8.70;;;28.20;52.50;;;;;;2622010;52;20926;-69
2023/10/02 12:54:51;;;;;;;17.85;9.18;;;28.30;52.30;;;;;;2621684;52;20922;-70
2023/10/02 12:57:17;;;;;;;20.00;9.75;;;28.40;52.10;;;;;;2621984;52;20950;-68
2023/10/02 12:59:43;;;;;;;17.67;8.38;;;28.40;52.00;;;;;;2368713;53;21705;-70
2023/10/02 13:02:10;;;;;;;16.83;8.40;;;28.50;51.80;;;;;;2369785;53;21431;-71
2023/10/02 13:04:36;;;;;;;14.32;7.87;;;28.50;51.70;;;;;;2621608;52;21490;-72
2023/10/02 13:07:05;;;;;;;15.73;8.13;;;28.60;51.60;;;;;;2621252;52;20930;-70
2023/10/02 13:09:32;;;;;;;16.37;8.60;;;28.60;51.40;;;;;;2621334;52;20930;-72
2023/10/02 13:12:01;;;;;;;18.02;9.10;;;28.70;51.10;;;;;;2369532;53;20997;-70
2023/10/02 13:14:27;;;;;;;17.55;8.77;;;28.80;50.90;;;;;;2369748;53;20927;-68
2023/10/02 13:16:54;;;;;;;17.23;8.45;;;28.80;50.90;;;;;;2368796;53;20961;-71
2023/10/02 13:19:20;;;;;;;16.77;8.57;;;28.90;50.70;;;;;;2369349;53;20926;-70
2023/10/02 13:21:52;;;;;;;19.30;8.95;;;29.00;50.60;;;;;;2619761;52;20971;-71
2023/10/02 13:24:23;;;;;;;17.00;8.15;;;29.00;50.50;;;;;;2370518;53;20962;-70
2023/10/02 13:26:50;;;;;;;19.02;8.77;;;29.10;50.30;;;;;;2341579;53;20953;-70
2023/10/02 13:29:18;;;;;;;19.75;10.43;;;29.10;50.10;;;;;;2341725;53;20976;-70
2023/10/02 13:31:47;;;;;;;23.30;11.25;;;29.20;50.00;;;;;;2368693;53;21355;-71
2023/10/02 13:34:14;;;;;;;21.37;10.60;;;29.20;50.00;;;;;;2621396;52;21380;-70
2023/10/02 13:36:40;;;;;;;21.00;10.07;;;29.30;49.60;;;;;;2621181;52;20915;-70
2023/10/02 13:39:14;;;;;;;18.58;9.18;;;29.30;49.30;;;;;;2622246;52;20945;-70
2023/10/02 13:41:40;;;;;;;18.37;9.45;;;29.40;49.20;;;;;;2369362;53;20946;-70
2023/10/02 13:44:07;;;;;;;27.20;9.82;;;29.40;49.10;;;;;;2369722;53;20975;-70
2023/10/02 13:46:38;;;;;;;18.83;9.52;;;29.50;48.80;;;;;;2621517;52;21545;-70
2023/10/02 13:49:05;;;;;;;18.65;9.57;;;29.60;48.60;;;;;;2369729;53;21649;-71
2023/10/02 13:51:34;;;;;;;18.62;9.25;;;29.60;48.30;;;;;;2368876;53;20931;-70
2023/10/02 13:54:01;;;;;;;23.75;10.98;;;29.70;47.80;;;;;;2621524;52;20918;-69
2023/10/02 13:56:32;;;;;;;18.40;8.85;;;29.70;47.70;;;;;;2369485;53;20978;-74
2023/10/02 13:58:59;;;;;;;19.00;9.82;;;29.70;47.70;;;;;;2368754;53;20918;-71
2023/10/02 14:01:25;;;;;;;21.00;9.50;;;29.80;47.70;;;;;;2369658;53;21295;-68
2023/10/02 14:03:53;;;;;;;19.52;10.10;;;29.80;47.70;;;;;;2369419;53;21897;-71
2023/10/02 14:06:21;;;;;;;20.02;10.10;;;29.90;47.60;;;;;;2621343;52;21042;-69
2023/10/02 14:08:49;;;;;;;19.08;8.85;;;29.90;47.60;;;;;;2369217;53;21003;-71
2023/10/02 14:11:20;;;;;;;19.67;9.38;;;30.00;47.60;;;;;;2621645;52;20907;-70